Time;durP1;ratioP1;P1;durP2;ratioP2;P2;SDS_P1;SDS_P2;PMS_P1;PMS_P2;Temp;Humidity;BMP_temperature;BMP_pressure;BME280_temperature;BME280_humidity;BME280_pressure;Samples;Min_cycle;Max_cycle;Signal;HPM_P1;HPM_P2
2021/11/19 00:01:02;;;;;;;77.63;15.35;;;;;;;;;;5133504;27;20716;-65
2021/11/19 00:03:30;;;;;;;77.68;15.02;;;;;;;;;;5135879;27;20252;-65
2021/11/19 00:05:57;;;;;;;77.55;15.05;;;;;;;;;;5134210;27;20211;-64
2021/11/19 00:08:27;;;;;;;74.93;13.50;;;;;;;;;;5135548;27;20290;-65
2021/11/19 00:10:54;;;;;;;79.25;13.38;;;;;;;;;;5135534;27;20590;-66
2021/11/19 00:13:23;;;;;;;72.35;12.07;;;;;;;;;;5136703;27;20211;-65
2021/11/19 00:15:51;;;;;;;70.97;12.80;;;;;;;;;;5135235;27;20199;-65
2021/11/19 00:18:20;;;;;;;70.25;12.57;;;;;;;;;;5135885;27;20289;-65
2021/11/19 00:20:47;;;;;;;73.10;14.05;;;;;;;;;;5135771;27;20227;-65
2021/11/19 00:23:14;;;;;;;72.07;13.20;;;;;;;;;;5136019;27;20392;-65
2021/11/19 00:25:41;;;;;;;75.25;13.20;;;;;;;;;;5135036;27;20293;-65
2021/11/19 00:28:09;;;;;;;73.25;11.38;;;;;;;;;;5135495;27;20293;-65
2021/11/19 00:30:38;;;;;;;71.68;12.10;;;;;;;;;;5134709;27;20285;-65
2021/11/19 00:33:06;;;;;;;72.15;12.73;;;;;;;;;;5135357;27;20202;-64
2021/11/19 00:35:33;;;;;;;70.80;12.38;;;;;;;;;;5135495;27;20199;-64
2021/11/19 00:38:01;;;;;;;70.05;11.75;;;;;;;;;;5135579;27;20583;-65
2021/11/19 00:40:30;;;;;;;70.45;12.60;;;;;;;;;;5135288;27;20222;-65
2021/11/19 00:42:57;;;;;;;74.57;13.57;;;;;;;;;;5134902;27;20205;-65
2021/11/19 00:45:25;;;;;;;73.47;12.35;;;;;;;;;;5133080;27;20302;-65
2021/11/19 00:47:54;;;;;;;72.82;11.90;;;;;;;;;;5133354;27;20207;-65
2021/11/19 00:50:24;;;;;;;72.57;11.30;;;;;;;;;;5135124;27;20195;-65
2021/11/19 00:52:51;;;;;;;69.85;11.15;;;;;;;;;;5135098;27;20229;-65
2021/11/19 00:55:18;;;;;;;71.00;11.10;;;;;;;;;;5135125;27;20293;-64
2021/11/19 00:57:45;;;;;;;72.32;12.07;;;;;;;;;;5134756;27;20301;-65
2021/11/19 01:00:14;;;;;;;71.63;11.50;;;;;;;;;;5134854;27;20314;-65
2021/11/19 01:02:41;;;;;;;69.50;11.00;;;;;;;;;;5134869;27;20237;-65
2021/11/19 01:05:10;;;;;;;70.63;11.82;;;;;;;;;;5134780;27;20302;-65
2021/11/19 01:07:38;;;;;;;72.55;11.48;;;;;;;;;;5134438;27;20213;-65
2021/11/19 01:10:09;;;;;;;72.68;12.15;;;;;;;;;;5134595;27;20290;-65
2021/11/19 01:12:36;;;;;;;69.35;10.45;;;;;;;;;;5133878;27;20309;-64
2021/11/19 01:15:09;;;;;;;70.72;11.25;;;;;;;;;;5133971;27;20555;-65
2021/11/19 01:17:39;;;;;;;70.97;11.77;;;;;;;;;;5133901;27;20222;-64
2021/11/19 01:20:10;;;;;;;74.65;12.25;;;;;;;;;;5132627;27;20596;-65
2021/11/19 01:22:40;;;;;;;70.10;11.57;;;;;;;;;;5135031;27;20314;-65
2021/11/19 01:25:09;;;;;;;78.57;11.77;;;;;;;;;;5134060;27;20294;-65
2021/11/19 01:27:36;;;;;;;71.57;11.13;;;;;;;;;;5134171;27;20578;-65
2021/11/19 01:30:04;;;;;;;74.30;11.38;;;;;;;;;;5134471;27;20203;-65
2021/11/19 01:32:31;;;;;;;68.90;10.75;;;;;;;;;;5134846;27;20226;-65
2021/11/19 01:34:58;;;;;;;70.32;11.20;;;;;;;;;;5134455;27;20273;-65
2021/11/19 01:37:27;;;;;;;72.13;11.77;;;;;;;;;;5134152;27;20237;-65
2021/11/19 01:39:55;;;;;;;74.63;10.68;;;;;;;;;;5134315;27;20341;-65
2021/11/19 01:42:25;;;;;;;70.53;10.98;;;;;;;;;;5134047;27;20227;-65
2021/11/19 01:44:57;;;;;;;69.68;11.60;;;;;;;;;;5134143;27;20212;-65
2021/11/19 01:47:25;;;;;;;67.22;10.70;;;;;;;;;;5133174;27;20589;-65
2021/11/19 01:49:53;;;;;;;76.10;10.75;;;;;;;;;;5133879;27;20300;-64
2021/11/19 01:52:23;;;;;;;68.47;10.70;;;;;;;;;;5131445;27;20734;-64
2021/11/19 01:54:51;;;;;;;69.78;11.48;;;;;;;;;;5133809;27;20674;-64
2021/11/19 01:57:23;;;;;;;67.25;11.02;;;;;;;;;;5133467;27;20576;-65
2021/11/19 01:59:52;;;;;;;68.32;10.98;;;;;;;;;;5133904;27;20298;-66
2021/11/19 02:02:20;;;;;;;68.70;10.82;;;;;;;;;;5133673;27;20234;-65
2021/11/19 02:04:49;;;;;;;73.47;11.93;;;;;;;;;;5130836;27;20211;-64
2021/11/19 02:07:22;;;;;;;68.28;10.23;;;;;;;;;;5133663;27;20294;-65
2021/11/19 02:09:52;;;;;;;70.13;11.50;;;;;;;;;;5133633;27;20577;-64
2021/11/19 02:12:30;;;;;;;71.15;11.07;;;;;;;;;;5133132;27;20233;-65
2021/11/19 02:15:01;;;;;;;70.75;11.50;;;;;;;;;;5133421;27;20298;-65
2021/11/19 02:17:28;;;;;;;68.82;11.45;;;;;;;;;;5132144;27;20236;-64
2021/11/19 02:19:56;;;;;;;68.13;10.18;;;;;;;;;;5132708;27;20290;-64
2021/11/19 02:22:25;;;;;;;69.25;10.32;;;;;;;;;;5133081;27;20226;-65
2021/11/19 02:24:54;;;;;;;69.85;10.93;;;;;;;;;;5130095;27;20209;-65
2021/11/19 02:27:23;;;;;;;71.22;11.40;;;;;;;;;;5132335;27;20290;-66
2021/11/19 02:29:52;;;;;;;72.22;11.43;;;;;;;;;;5132688;27;20237;-64
2021/11/19 02:32:21;;;;;;;73.15;11.50;;;;;;;;;;5133036;27;20223;-65
2021/11/19 02:34:48;;;;;;;71.60;11.90;;;;;;;;;;5132260;27;20203;-65
2021/11/19 02:37:17;;;;;;;74.60;13.18;;;;;;;;;;5132424;27;20209;-65
2021/11/19 02:39:45;;;;;;;71.40;12.70;;;;;;;;;;5132491;27;20217;-65
2021/11/19 02:42:14;;;;;;;68.28;10.55;;;;;;;;;;5131119;27;20222;-64
2021/11/19 02:44:43;;;;;;;71.00;11.73;;;;;;;;;;5131857;27;20213;-65
2021/11/19 02:47:12;;;;;;;72.57;12.65;;;;;;;;;;5132456;27;20203;-66
2021/11/19 02:49:40;;;;;;;73.70;12.05;;;;;;;;;;5132494;27;20203;-64
2021/11/19 02:52:08;;;;;;;69.60;10.80;;;;;;;;;;5132527;27;20229;-64
2021/11/19 02:54:35;;;;;;;68.47;10.20;;;;;;;;;;5133027;27;20207;-65
2021/11/19 02:57:04;;;;;;;71.70;11.38;;;;;;;;;;5130093;27;20699;-65
2021/11/19 02:59:31;;;;;;;69.63;10.55;;;;;;;;;;5132800;27;20687;-66
2021/11/19 03:02:01;;;;;;;70.43;11.32;;;;;;;;;;5131945;27;20779;-64
2021/11/19 03:04:31;;;;;;;69.30;11.32;;;;;;;;;;5132251;27;20294;-65
2021/11/19 03:06:59;;;;;;;75.07;12.13;;;;;;;;;;5131764;27;20641;-65
2021/11/19 03:09:29;;;;;;;75.40;12.20;;;;;;;;;;5132471;27;20210;-65
2021/11/19 03:11:56;;;;;;;68.68;11.20;;;;;;;;;;5132111;27;20609;-65
2021/11/19 03:14:24;;;;;;;72.45;11.30;;;;;;;;;;5132108;27;20207;-65
2021/11/19 03:16:52;;;;;;;71.80;12.13;;;;;;;;;;5131432;27;20206;-64
2021/11/19 03:19:21;;;;;;;77.00;13.20;;;;;;;;;;5131395;27;20589;-65
2021/11/19 03:21:48;;;;;;;76.47;14.57;;;;;;;;;;5132329;27;20230;-65
2021/11/19 03:24:16;;;;;;;74.03;12.70;;;;;;;;;;5132455;27;20293;-65
2021/11/19 03:26:44;;;;;;;72.00;13.00;;;;;;;;;;5131812;27;20203;-65
2021/11/19 03:29:12;;;;;;;75.38;14.25;;;;;;;;;;5130165;27;20650;-65
2021/11/19 03:31:40;;;;;;;80.25;14.50;;;;;;;;;;5132268;27;20223;-64
2021/11/19 03:34:09;;;;;;;73.70;12.57;;;;;;;;;;5131982;27;20638;-64
2021/11/19 03:36:39;;;;;;;74.65;13.00;;;;;;;;;;5135960;27;20634;-64
2021/11/19 03:39:07;;;;;;;71.55;13.40;;;;;;;;;;5136521;27;20581;-65
2021/11/19 03:41:37;;;;;;;70.75;12.20;;;;;;;;;;5136198;27;20349;-65
2021/11/19 03:44:06;;;;;;;74.22;11.45;;;;;;;;;;5135231;27;20210;-65
2021/11/19 03:46:36;;;;;;;74.28;12.65;;;;;;;;;;5134589;27;20234;-65
2021/11/19 03:49:04;;;;;;;107.32;25.13;;;;;;;;;;5135187;27;20213;-65
2021/11/19 03:51:33;;;;;;;106.82;23.60;;;;;;;;;;5136172;27;20222;-65
2021/11/19 03:54:02;;;;;;;74.63;14.32;;;;;;;;;;5136451;27;20203;-65
2021/11/19 03:56:29;;;;;;;70.20;12.15;;;;;;;;;;5135587;27;20289;-64
2021/11/19 03:58:56;;;;;;;75.13;14.05;;;;;;;;;;5135110;27;20298;-65
2021/11/19 04:01:25;;;;;;;71.88;11.60;;;;;;;;;;5134212;27;20258;-64
2021/11/19 04:03:53;;;;;;;69.18;10.77;;;;;;;;;;5135995;27;20199;-65
2021/11/19 04:06:21;;;;;;;71.68;10.52;;;;;;;;;;5134511;27;20213;-65
2021/11/19 04:08:48;;;;;;;72.03;12.32;;;;;;;;;;5135665;27;20207;-64
2021/11/19 04:11:17;;;;;;;72.15;12.77;;;;;;;;;;5135400;27;20658;-65
2021/11/19 04:13:45;;;;;;;72.55;12.10;;;;;;;;;;5134822;27;20202;-65
2021/11/19 04:16:14;;;;;;;69.63;11.40;;;;;;;;;;5135388;27;20231;-64
2021/11/19 04:18:42;;;;;;;74.70;13.50;;;;;;;;;;5135444;27;20210;-64
2021/11/19 04:21:09;;;;;;;74.60;14.73;;;;;;;;;;5134928;27;20670;-65
2021/11/19 04:23:37;;;;;;;75.60;15.70;;;;;;;;;;5135655;27;20198;-65
2021/11/19 04:26:05;;;;;;;71.75;13.05;;;;;;;;;;5135440;27;20202;-64
2021/11/19 04:28:34;;;;;;;75.50;13.35;;;;;;;;;;5135549;27;20573;-67
2021/11/19 04:31:02;;;;;;;69.28;11.85;;;;;;;;;;5134946;27;20309;-67
2021/11/19 04:33:29;;;;;;;70.10;10.65;;;;;;;;;;5133402;27;20202;-68
2021/11/19 04:35:57;;;;;;;69.50;11.98;;;;;;;;;;5135203;27;20230;-66
2021/11/19 04:38:25;;;;;;;66.78;10.07;;;;;;;;;;5135381;27;20235;-65
2021/11/19 04:40:52;;;;;;;69.75;11.25;;;;;;;;;;5135582;27;20265;-66
2021/11/19 04:43:20;;;;;;;76.88;12.85;;;;;;;;;;5134424;27;20289;-66
2021/11/19 04:45:48;;;;;;;72.55;12.80;;;;;;;;;;5133571;27;20679;-66
2021/11/19 04:48:16;;;;;;;79.10;16.00;;;;;;;;;;5133803;27;20304;-66
2021/11/19 04:50:44;;;;;;;78.55;15.50;;;;;;;;;;5132919;27;20206;-65
2021/11/19 04:53:13;;;;;;;73.65;14.02;;;;;;;;;;5134439;27;20293;-66
2021/11/19 04:55:40;;;;;;;75.00;14.20;;;;;;;;;;5134304;27;20207;-66
2021/11/19 04:58:08;;;;;;;75.13;12.45;;;;;;;;;;5133921;27;20206;-66
2021/11/19 05:00:37;;;;;;;73.47;13.80;;;;;;;;;;5134475;27;20215;-65
2021/11/19 05:03:05;;;;;;;73.60;13.48;;;;;;;;;;5133588;27;20219;-66
2021/11/19 05:05:33;;;;;;;73.63;11.57;;;;;;;;;;5132551;27;20218;-66
2021/11/19 05:08:00;;;;;;;68.85;10.90;;;;;;;;;;5134933;27;20206;-66
2021/11/19 05:10:28;;;;;;;72.78;12.57;;;;;;;;;;5134575;27;20202;-66
2021/11/19 05:12:56;;;;;;;70.97;11.75;;;;;;;;;;5133820;27;20210;-65
2021/11/19 05:15:24;;;;;;;75.60;11.30;;;;;;;;;;5133569;27;20210;-64
2021/11/19 05:17:51;;;;;;;71.93;11.82;;;;;;;;;;5133830;27;20199;-66
2021/11/19 05:20:21;;;;;;;67.15;10.40;;;;;;;;;;5134792;27;20203;-66
2021/11/19 05:22:48;;;;;;;71.80;12.77;;;;;;;;;;5134690;27;20237;-66
2021/11/19 05:25:16;;;;;;;70.57;11.18;;;;;;;;;;5134599;27;20204;-66
2021/11/19 05:27:44;;;;;;;73.25;12.27;;;;;;;;;;5133273;27;20206;-66
2021/11/19 05:30:12;;;;;;;74.22;12.82;;;;;;;;;;5133498;27;20198;-66
2021/11/19 05:32:39;;;;;;;72.85;12.77;;;;;;;;;;5133608;27;20241;-66
2021/11/19 05:35:08;;;;;;;72.53;12.65;;;;;;;;;;5133193;27;20209;-63
2021/11/19 05:37:37;;;;;;;72.43;12.77;;;;;;;;;;5112771;28;20256;-65
2021/11/19 05:40:05;;;;;;;71.90;11.95;;;;;;;;;;5113733;28;20206;-66
2021/11/19 05:42:32;;;;;;;68.15;12.18;;;;;;;;;;5111301;28;20227;-65
2021/11/19 05:44:59;;;;;;;73.85;13.15;;;;;;;;;;5112457;28;20585;-66
2021/11/19 05:47:26;;;;;;;74.00;11.52;;;;;;;;;;5112203;28;20311;-65
2021/11/19 05:49:57;;;;;;;72.05;12.73;;;;;;;;;;5112458;27;20204;-65
2021/11/19 05:52:24;;;;;;;77.07;13.70;;;;;;;;;;5112459;28;20604;-64
2021/11/19 05:54:53;;;;;;;72.45;11.32;;;;;;;;;;5111434;28;20671;-66
2021/11/19 05:57:20;;;;;;;72.82;12.63;;;;;;;;;;5111474;28;20675;-64
2021/11/19 05:59:48;;;;;;;72.65;11.77;;;;;;;;;;5113089;28;20210;-66
2021/11/19 06:02:16;;;;;;;76.50;12.52;;;;;;;;;;5112876;28;20326;-66
2021/11/19 06:04:43;;;;;;;80.07;13.27;;;;;;;;;;5113000;28;20199;-65
2021/11/19 06:07:10;;;;;;;71.00;12.65;;;;;;;;;;5111697;28;20529;-65
2021/11/19 06:09:40;;;;;;;76.50;12.57;;;;;;;;;;5111563;28;20235;-65
2021/11/19 06:12:12;;;;;;;74.13;11.07;;;;;;;;;;5111300;28;20250;-65
2021/11/19 06:14:41;;;;;;;69.60;11.45;;;;;;;;;;5112474;28;20204;-66
2021/11/19 06:17:10;;;;;;;68.25;11.15;;;;;;;;;;5112889;28;20278;-66
2021/11/19 06:19:38;;;;;;;70.10;11.52;;;;;;;;;;5113048;28;20203;-65
2021/11/19 06:22:09;;;;;;;71.63;12.50;;;;;;;;;;5112945;28;20444;-66
2021/11/19 06:24:36;;;;;;;73.53;11.10;;;;;;;;;;5111927;28;20199;-66
2021/11/19 06:27:04;;;;;;;80.90;12.63;;;;;;;;;;5112011;28;20204;-65
2021/11/19 06:29:33;;;;;;;71.32;11.63;;;;;;;;;;5111667;28;20211;-66
2021/11/19 06:32:00;;;;;;;71.60;11.63;;;;;;;;;;5111974;28;20219;-66
2021/11/19 06:34:28;;;;;;;74.28;12.00;;;;;;;;;;5111970;28;20212;-65
2021/11/19 06:36:56;;;;;;;74.40;11.80;;;;;;;;;;5112074;28;20282;-66
2021/11/19 06:39:23;;;;;;;70.57;12.00;;;;;;;;;;5112500;28;20211;-66
2021/11/19 06:41:51;;;;;;;79.97;13.05;;;;;;;;;;5112438;28;20604;-66
2021/11/19 06:44:18;;;;;;;71.38;11.77;;;;;;;;;;5112544;28;20200;-66
2021/11/19 06:46:46;;;;;;;71.05;12.20;;;;;;;;;;5111772;28;20596;-66
2021/11/19 06:49:14;;;;;;;70.35;12.25;;;;;;;;;;5112125;28;20290;-65
2021/11/19 06:51:41;;;;;;;75.85;12.48;;;;;;;;;;5111582;28;20599;-66
2021/11/19 06:54:09;;;;;;;74.47;12.82;;;;;;;;;;5112337;28;20203;-65
2021/11/19 06:56:36;;;;;;;75.60;12.30;;;;;;;;;;5112088;28;20207;-65
2021/11/19 06:59:04;;;;;;;72.25;12.90;;;;;;;;;;5111815;28;20203;-66
2021/11/19 07:01:31;;;;;;;73.25;12.63;;;;;;;;;;5111718;28;20318;-66
2021/11/19 07:03:59;;;;;;;73.30;12.95;;;;;;;;;;5112150;28;20211;-64
2021/11/19 07:06:27;;;;;;;73.95;14.13;;;;;;;;;;5111357;28;20694;-66
2021/11/19 07:08:54;;;;;;;72.18;12.93;;;;;;;;;;5111912;28;20243;-66
2021/11/19 07:11:23;;;;;;;75.75;12.50;;;;;;;;;;5111663;28;20592;-66
2021/11/19 07:13:52;;;;;;;72.90;12.18;;;;;;;;;;5111145;28;20252;-66
2021/11/19 07:16:19;;;;;;;72.70;11.63;;;;;;;;;;5111435;28;20580;-66
2021/11/19 07:18:46;;;;;;;72.45;12.65;;;;;;;;;;5111873;28;20207;-66
2021/11/19 07:21:15;;;;;;;68.70;11.18;;;;;;;;;;5112079;28;20226;-66
2021/11/19 07:23:42;;;;;;;70.82;10.77;;;;;;;;;;5111733;28;20266;-65
2021/11/19 07:26:10;;;;;;;74.40;12.43;;;;;;;;;;5111153;28;20203;-66
2021/11/19 07:28:37;;;;;;;70.72;12.23;;;;;;;;;;5111483;28;20199;-65
2021/11/19 07:31:05;;;;;;;78.70;14.75;;;;;;;;;;5111697;28;20715;-66
2021/11/19 07:33:32;;;;;;;72.47;13.40;;;;;;;;;;5112268;28;20195;-66
2021/11/19 07:36:02;;;;;;;73.80;13.50;;;;;;;;;;5111767;28;20250;-66
2021/11/19 07:38:30;;;;;;;69.93;12.30;;;;;;;;;;5112108;28;20284;-66
2021/11/19 07:40:58;;;;;;;75.80;13.20;;;;;;;;;;5111870;28;20223;-65
2021/11/19 07:43:27;;;;;;;70.85;12.38;;;;;;;;;;5111947;28;20229;-66
2021/11/19 07:45:55;;;;;;;72.88;11.95;;;;;;;;;;5111788;28;20290;-65
2021/11/19 07:48:23;;;;;;;73.50;13.35;;;;;;;;;;5112168;28;20560;-66
2021/11/19 07:50:54;;;;;;;73.40;12.63;;;;;;;;;;5111936;28;20584;-66
2021/11/19 07:53:21;;;;;;;68.43;11.32;;;;;;;;;;5123916;28;20199;-66
2021/11/19 07:55:51;;;;;;;70.95;11.73;;;;;;;;;;5128901;27;20209;-66
2021/11/19 07:58:19;;;;;;;74.90;12.80;;;;;;;;;;5131390;27;20221;-65
2021/11/19 08:00:48;;;;;;;71.70;12.38;;;;;;;;;;5131930;27;20290;-65
2021/11/19 08:03:15;;;;;;;72.95;13.75;;;;;;;;;;5131886;27;20325;-65
2021/11/19 08:05:44;;;;;;;76.50;13.50;;;;;;;;;;5131783;27;20298;-65
2021/11/19 08:08:11;;;;;;;75.15;14.05;;;;;;;;;;5129933;27;20213;-66
2021/11/19 08:10:38;;;;;;;70.90;12.18;;;;;;;;;;5131697;27;20234;-65
2021/11/19 08:13:07;;;;;;;76.85;14.52;;;;;;;;;;5131781;27;20286;-66
2021/11/19 08:15:35;;;;;;;74.68;13.30;;;;;;;;;;5131375;27;20247;-64
2021/11/19 08:18:03;;;;;;;76.53;13.85;;;;;;;;;;5132015;27;20316;-64
2021/11/19 08:20:36;;;;;;;76.20;15.02;;;;;;;;;;5132016;27;20207;-65
2021/11/19 08:23:04;;;;;;;72.22;13.02;;;;;;;;;;5135742;27;20317;-65
2021/11/19 08:25:31;;;;;;;76.90;13.77;;;;;;;;;;5135380;27;20217;-65
2021/11/19 08:27:58;;;;;;;78.03;13.80;;;;;;;;;;5135687;27;20209;-65
2021/11/19 08:30:31;;;;;;;75.32;13.65;;;;;;;;;;5135654;27;20682;-65
2021/11/19 08:32:58;;;;;;;77.35;13.35;;;;;;;;;;5135688;27;20205;-65
2021/11/19 08:35:25;;;;;;;71.22;12.43;;;;;;;;;;5135072;27;20252;-62
2021/11/19 08:37:54;;;;;;;75.53;12.60;;;;;;;;;;5133372;27;20205;-65
2021/11/19 08:40:21;;;;;;;72.35;13.00;;;;;;;;;;5135367;27;20203;-65
2021/11/19 08:42:48;;;;;;;72.75;13.05;;;;;;;;;;5135415;27;20309;-65
2021/11/19 08:45:18;;;;;;;71.22;11.50;;;;;;;;;;5134921;27;20285;-66
2021/11/19 08:47:46;;;;;;;78.10;13.38;;;;;;;;;;5134383;27;20207;-64
2021/11/19 08:50:15;;;;;;;69.28;12.35;;;;;;;;;;5134447;27;20229;-66
2021/11/19 08:52:42;;;;;;;71.60;12.52;;;;;;;;;;5135036;27;20226;-66
2021/11/19 08:55:10;;;;;;;76.07;13.90;;;;;;;;;;5135027;27;20701;-65
2021/11/19 08:57:38;;;;;;;72.32;12.45;;;;;;;;;;5134504;27;20207;-66
2021/11/19 09:00:06;;;;;;;72.55;12.68;;;;;;;;;;5134830;27;20199;-66
2021/11/19 09:02:33;;;;;;;70.25;12.00;;;;;;;;;;5134952;27;20227;-65
2021/11/19 09:05:02;;;;;;;71.53;12.13;;;;;;;;;;5134638;27;20305;-65
2021/11/19 09:07:31;;;;;;;69.88;13.43;;;;;;;;;;5134860;27;20644;-64
2021/11/19 09:09:58;;;;;;;70.70;11.48;;;;;;;;;;5133023;27;20243;-65
2021/11/19 09:12:25;;;;;;;72.70;12.85;;;;;;;;;;5134940;27;20241;-66
2021/11/19 09:14:53;;;;;;;74.68;12.10;;;;;;;;;;5134382;27;20298;-65
2021/11/19 09:17:39;;;;;;;73.57;12.55;;;;;;;;;;5133802;27;20211;-65
2021/11/19 09:20:10;;;;;;;71.82;11.90;;;;;;;;;;5134515;27;20211;-65
2021/11/19 09:22:41;;;;;;;73.50;12.10;;;;;;;;;;5134696;27;20489;-66
2021/11/19 09:25:09;;;;;;;72.47;12.80;;;;;;;;;;5134642;27;20248;-64
2021/11/19 09:27:37;;;;;;;71.18;10.57;;;;;;;;;;5134126;27;20992;-65
2021/11/19 09:30:13;;;;;;;69.70;11.35;;;;;;;;;;5134959;27;20211;-63
2021/11/19 09:32:40;;;;;;;72.90;11.65;;;;;;;;;;5134143;27;20224;-65
2021/11/19 09:35:09;;;;;;;72.55;11.38;;;;;;;;;;5134430;27;20635;-66
2021/11/19 09:37:37;;;;;;;69.85;12.00;;;;;;;;;;5133750;27;20204;-65
2021/11/19 09:40:05;;;;;;;71.47;12.27;;;;;;;;;;5134107;27;20295;-66
2021/11/19 09:42:38;;;;;;;70.75;12.18;;;;;;;;;;5131729;27;20311;-66
2021/11/19 09:45:23;;;;;;;75.80;11.77;;;;;;;;;;5134519;27;20210;-65
2021/11/19 09:48:09;;;;;;;70.40;11.93;;;;;;;;;;5133990;27;20204;-66
2021/11/19 09:50:49;;;;;;;72.00;12.25;;;;;;;;;;5134025;27;20702;-66
2021/11/19 09:53:44;;;;;;;75.67;12.50;;;;;;;;;;5134054;27;20291;-65
2021/11/19 09:56:32;;;;;;;73.28;12.57;;;;;;;;;;5133598;27;20452;-66
2021/11/19 09:59:03;;;;;;;72.10;12.45;;;;;;;;;;5128678;27;20222;-66
2021/11/19 10:01:45;;;;;;;70.53;11.90;;;;;;;;;;5133675;27;20382;-66
2021/11/19 10:04:20;;;;;;;68.40;10.18;;;;;;;;;;5134026;27;20219;-67
2021/11/19 10:06:52;;;;;;;68.43;11.27;;;;;;;;;;5133821;27;20216;-66
2021/11/19 10:09:21;;;;;;;71.70;11.82;;;;;;;;;;5133634;27;20207;-66
2021/11/19 10:11:50;;;;;;;76.18;13.98;;;;;;;;;;5133547;27;20228;-66
2021/11/19 10:14:30;;;;;;;73.87;12.77;;;;;;;;;;5132004;27;20575;-66
2021/11/19 10:17:08;;;;;;;71.40;11.43;;;;;;;;;;5133290;27;20442;-66
2021/11/19 10:19:37;;;;;;;72.53;12.07;;;;;;;;;;5132823;27;20461;-67
2021/11/19 10:22:09;;;;;;;74.30;12.60;;;;;;;;;;5133110;27;21042;-66
2021/11/19 10:24:40;;;;;;;70.00;11.83;;;;;;;;;;5133682;27;20560;-66
2021/11/19 10:27:08;;;;;;;69.80;10.43;;;;;;;;;;5133321;27;20444;-67
2021/11/19 10:29:37;;;;;;;71.10;10.93;;;;;;;;;;5133438;27;20525;-66
2021/11/19 10:32:05;;;;;;;71.07;11.57;;;;;;;;;;5133326;27;20469;-66
2021/11/19 10:34:34;;;;;;;74.50;10.77;;;;;;;;;;5133187;27;20444;-66
2021/11/19 10:37:11;;;;;;;75.87;12.37;;;;;;;;;;5133110;27;21000;-66
2021/11/19 10:39:52;;;;;;;72.57;12.50;;;;;;;;;;5132709;27;20453;-65
2021/11/19 10:42:37;;;;;;;73.67;12.90;;;;;;;;;;5133470;27;20961;-66
2021/11/19 10:45:25;;;;;;;72.90;11.70;;;;;;;;;;5130207;27;20442;-66
2021/11/19 10:48:04;;;;;;;71.80;11.53;;;;;;;;;;5133043;27;20966;-66
2021/11/19 10:50:46;;;;;;;72.97;11.70;;;;;;;;;;5133061;27;21014;-66
2021/11/19 10:53:39;;;;;;;72.60;12.40;;;;;;;;;;5130834;27;20451;-66
2021/11/19 10:56:19;;;;;;;76.10;13.57;;;;;;;;;;5132833;27;20883;-66
2021/11/19 10:58:54;;;;;;;69.07;11.10;;;;;;;;;;5132375;27;20946;-66
2021/11/19 11:01:25;;;;;;;74.13;12.43;;;;;;;;;;5132609;27;20483;-66
2021/11/19 11:04:08;;;;;;;76.13;11.70;;;;;;;;;;5132519;27;20553;-66
2021/11/19 11:06:41;;;;;;;73.33;12.60;;;;;;;;;;5132436;27;20492;-66
2021/11/19 11:09:21;;;;;;;72.65;12.98;;;;;;;;;;5132768;27;20806;-66
2021/11/19 11:11:53;;;;;;;75.47;14.23;;;;;;;;;;5132652;27;20272;-67
2021/11/19 11:14:21;;;;;;;78.23;14.50;;;;;;;;;;5132704;27;20474;-66
2021/11/19 11:16:49;;;;;;;72.80;12.20;;;;;;;;;;5130398;27;20960;-66
2021/11/19 11:19:18;;;;;;;75.40;13.77;;;;;;;;;;5132365;27;20450;-66
2021/11/19 11:22:02;;;;;;;76.17;12.90;;;;;;;;;;5132122;27;20997;-65
2021/11/19 11:24:31;;;;;;;80.47;14.00;;;;;;;;;;5132317;27;20522;-66
2021/11/19 11:27:14;;;;;;;79.30;14.50;;;;;;;;;;5132190;27;20447;-66
2021/11/19 11:29:46;;;;;;;78.47;12.40;;;;;;;;;;5132648;27;20533;-65
2021/11/19 11:32:18;;;;;;;74.27;14.20;;;;;;;;;;5132570;27;20853;-67
2021/11/19 11:34:58;;;;;;;78.77;13.20;;;;;;;;;;5132661;27;20434;-66
2021/11/19 11:37:30;;;;;;;79.67;15.70;;;;;;;;;;5132264;27;20917;-64
2021/11/19 11:40:03;;;;;;;81.03;15.70;;;;;;;;;;5132170;27;20441;-65
2021/11/19 11:42:32;;;;;;;77.97;14.60;;;;;;;;;;5132129;27;20505;-66
2021/11/19 11:45:00;;;;;;;78.70;14.30;;;;;;;;;;5132115;27;20506;-66
2021/11/19 11:47:32;;;;;;;82.30;14.87;;;;;;;;;;5131758;27;20524;-66
2021/11/19 11:50:00;;;;;;;74.23;14.00;;;;;;;;;;5129690;27;20743;-66
2021/11/19 11:52:31;;;;;;;77.33;14.13;;;;;;;;;;5132196;27;20461;-66
2021/11/19 11:55:11;;;;;;;86.83;14.93;;;;;;;;;;5132313;27;20456;-66
2021/11/19 11:57:43;;;;;;;78.67;14.33;;;;;;;;;;5135780;27;20452;-67
2021/11/19 12:00:12;;;;;;;79.23;13.17;;;;;;;;;;5136064;27;20543;-66
2021/11/19 12:02:42;;;;;;;76.50;14.70;;;;;;;;;;5136252;27;20544;-66
2021/11/19 12:05:28;;;;;;;77.23;13.70;;;;;;;;;;5135731;27;20481;-66
2021/11/19 12:07:58;;;;;;;75.63;12.47;;;;;;;;;;5136317;27;20529;-66
2021/11/19 12:10:35;;;;;;;76.70;14.03;;;;;;;;;;5135959;27;20450;-66
2021/11/19 12:13:04;;;;;;;76.57;14.07;;;;;;;;;;5136662;27;20446;-66
2021/11/19 12:15:34;;;;;;;77.30;14.27;;;;;;;;;;5135717;27;20525;-66
2021/11/19 12:18:05;;;;;;;78.20;13.03;;;;;;;;;;5136046;27;20451;-65
2021/11/19 12:20:46;;;;;;;72.03;12.37;;;;;;;;;;5135746;27;20446;-65
2021/11/19 12:23:23;;;;;;;77.67;12.90;;;;;;;;;;5115279;28;21031;-66
2021/11/19 12:25:57;;;;;;;73.87;13.87;;;;;;;;;;5115112;28;20447;-66
2021/11/19 12:28:25;;;;;;;77.60;14.20;;;;;;;;;;5115361;28;20541;-66
2021/11/19 12:30:55;;;;;;;80.83;13.23;;;;;;;;;;5115069;28;20549;-66
2021/11/19 12:33:24;;;;;;;75.63;12.10;;;;;;;;;;5115081;28;20442;-66
2021/11/19 12:35:56;;;;;;;72.97;12.20;;;;;;;;;;5114983;28;20531;-65
2021/11/19 12:38:25;;;;;;;75.23;14.00;;;;;;;;;;5115228;28;20537;-65
2021/11/19 12:40:57;;;;;;;72.27;12.40;;;;;;;;;;5114758;28;20472;-66
2021/11/19 12:43:44;;;;;;;75.83;12.77;;;;;;;;;;5114987;28;20831;-66
2021/11/19 12:46:17;;;;;;;75.33;13.07;;;;;;;;;;5088727;28;20526;-65
2021/11/19 12:49:04;;;;;;;75.33;13.30;;;;;;;;;;5115010;28;20527;-66
2021/11/19 12:51:33;;;;;;;81.30;14.20;;;;;;;;;;5114585;27;20462;-66
2021/11/19 12:54:04;;;;;;;73.83;11.33;;;;;;;;;;5121175;27;20453;-65
2021/11/19 12:56:43;;;;;;;76.20;12.93;;;;;;;;;;5135263;27;20522;-65
2021/11/19 12:59:13;;;;;;;77.63;12.33;;;;;;;;;;5135336;27;20473;-65
2021/11/19 13:01:43;;;;;;;74.17;13.33;;;;;;;;;;5134579;27;20463;-66
2021/11/19 13:04:23;;;;;;;73.43;12.80;;;;;;;;;;5135120;27;20478;-65
2021/11/19 13:06:58;;;;;;;82.40;13.30;;;;;;;;;;5134467;27;20500;-65
2021/11/19 13:09:47;;;;;;;73.67;12.93;;;;;;;;;;5134545;27;20437;-66
2021/11/19 13:12:38;;;;;;;79.70;13.80;;;;;;;;;;5134913;27;20471;-66
2021/11/19 13:15:38;;;;;;;80.50;13.13;;;;;;;;;;5119302;27;20819;-65
2021/11/19 13:18:09;;;;;;;75.93;13.07;;;;;;;;;;5135014;27;20450;-66
2021/11/19 13:20:50;;;;;;;79.63;13.97;;;;;;;;;;5134790;27;20438;-66
2021/11/19 13:23:37;;;;;;;75.07;12.90;;;;;;;;;;5134352;27;20454;-66
2021/11/19 13:26:24;;;;;;;75.57;13.20;;;;;;;;;;5132356;27;20889;-67
2021/11/19 13:28:54;;;;;;;70.68;12.00;;;;;;;;;;5134225;27;20456;-66
2021/11/19 13:31:26;;;;;;;73.25;12.40;;;;;;;;;;5134063;27;20318;-67
2021/11/19 13:34:08;;;;;;;77.47;13.07;;;;;;;;;;5134852;27;20296;-66
2021/11/19 13:36:37;;;;;;;72.05;13.18;;;;;;;;;;5133911;27;20260;-65
2021/11/19 13:39:19;;;;;;;76.47;13.43;;;;;;;;;;5134615;27;20210;-66
2021/11/19 13:42:11;;;;;;;77.80;13.15;;;;;;;;;;5133879;27;20227;-66
2021/11/19 13:44:55;;;;;;;75.47;13.20;;;;;;;;;;5134159;27;20230;-67
2021/11/19 13:47:55;;;;;;;78.93;12.90;;;;;;;;;;5134002;27;20242;-67
2021/11/19 13:50:46;;;;;;;77.72;13.82;;;;;;;;;;5134139;27;20215;-65
2021/11/19 13:53:17;;;;;;;78.05;14.32;;;;;;;;;;5076348;27;20251;-64
2021/11/19 13:55:45;;;;;;;79.55;13.43;;;;;;;;;;5133888;27;20200;-66
2021/11/19 13:58:30;;;;;;;79.50;14.63;;;;;;;;;;5131666;27;20574;-66
2021/11/19 14:01:03;;;;;;;78.80;15.02;;;;;;;;;;5133887;27;20230;-66
2021/11/19 14:03:31;;;;;;;85.73;16.40;;;;;;;;;;5134028;27;20294;-66
2021/11/19 14:06:00;;;;;;;77.20;14.20;;;;;;;;;;5133360;27;20476;-66
2021/11/19 14:08:28;;;;;;;72.93;11.98;;;;;;;;;;5133961;27;20243;-66
2021/11/19 14:10:58;;;;;;;80.30;13.88;;;;;;;;;;5133620;27;20229;-67
2021/11/19 14:13:28;;;;;;;75.35;13.38;;;;;;;;;;5133695;27;20620;-66
2021/11/19 14:16:05;;;;;;;83.87;16.07;;;;;;;;;;5133710;27;20196;-66
2021/11/19 14:18:35;;;;;;;78.35;13.07;;;;;;;;;;5133424;27;20445;-66
2021/11/19 14:23:51;;;;;;;75.65;13.30;;;;;;;;;;5133484;27;20491;-67
2021/11/19 14:26:23;;;;;;;80.20;13.48;;;;;;;;;;5133571;27;20306;-65
2021/11/19 14:28:52;;;;;;;80.33;13.73;;;;;;;;;;5133631;27;20413;-66
2021/11/19 14:31:21;;;;;;;78.78;15.15;;;;;;;;;;5113089;27;20999;-66
2021/11/19 14:34:08;;;;;;;83.63;14.35;;;;;;;;;;5112851;28;20552;-66
2021/11/19 14:36:46;;;;;;;74.55;13.45;;;;;;;;;;5109017;28;20292;-66
2021/11/19 14:39:15;;;;;;;84.05;15.18;;;;;;;;;;5122659;27;20209;-66